Crosby, Washington
Current Conditions -  °F | °C
As of 3:55 AM on Wednesday 28 Jan 2015 (Local Time) from KPWT Reporting Station
Overcast Overcast  
Wind Chill:   Ceiling: 800
Heat Index:   Visibility: 1.7mi
Dew Point:   Wind: 0mph
Humidity: 93%   Direction: NA
Pressure: 30.34"   Gusts: NA
Location:  47.5964°N, 122.62°W
Report Text: KPWT 281155Z AUTO 00000KT 1 3/4SM OVC008 07/06 A3034 RMK AO1 10080 20070 52010
Loading
Personal Weather Stations






























Interactive Weather Map New forecast layout! Learn more

10-Day Weather Forecast

Advertisements
Track Severe Weather on mobile